Airport View

Enter AWOS ICAO identifier for current METAR.

ex. KFNL

KSHN 310253Z AUTO 24015KT 10SM -RA FEW010 BKN095 OVC110 11/09 A2984 RMK AO2 SLP107 P0001 60010 T01060094 55011

31 May 2020 03:25

Frequency: 119.275

Phone: 360-427-3835

Other Area AWOS: KOLM - KPWT - KTIW - KGRF

TAF KOLM 302320Z 3100/3124 20006KT P6SM -SHRA SCT020 BKN060 OVC100 FM310100 23012KT 5SM -SHRA BR OVC020 FM310800 20008KT P6SM VCSH OVC020 FM311400 22007KT P6SM OVC025